sensor_id;sensor_type;location;lat;lon;timestamp;pressure;altitude;pressure_sealevel;temperature;humidity
74437;BME280;62868;52.360;30.424;2023-06-04T00:01:44;1034;;;9.5;48.1
74437;BME280;62868;52.360;30.424;2023-06-04T00:06:48;1034;;;9.4;48.2
74437;BME280;62868;52.360;30.424;2023-06-04T00:12:18;1034.1;;;9.3;48.3
74437;BME280;62868;52.360;30.424;2023-06-04T00:17:18;1034.1;;;9.3;48.5
74437;BME280;62868;52.360;30.424;2023-06-04T00:21:34;1034.1;;;9.2;48.6
74437;BME280;62868;52.360;30.424;2023-06-04T00:27:18;1034.1;;;9.1;48.9
74437;BME280;62868;52.360;30.424;2023-06-04T00:32:02;1034.1;;;9.1;49.1
74437;BME280;62868;52.360;30.424;2023-06-04T00:37:04;1034.1;;;9;49.2
74437;BME280;62868;52.360;30.424;2023-06-04T00:42:04;1034.2;;;9;49.5
74437;BME280;62868;52.360;30.424;2023-06-04T00:47:18;1034.2;;;8.9;49.6
74437;BME280;62868;52.360;30.424;2023-06-04T00:51:36;1034.2;;;8.8;49.8
74437;BME280;62868;52.360;30.424;2023-06-04T00:57:18;1034.2;;;8.8;49.8
74437;BME280;62868;52.360;30.424;2023-06-04T01:01:35;1034.3;;;8.8;50
74437;BME280;62868;52.360;30.424;2023-06-04T01:07:03;1034.3;;;8.7;50.2
74437;BME280;62868;52.360;30.424;2023-06-04T01:12:03;1034.3;;;8.6;50.4
74437;BME280;62868;52.360;30.424;2023-06-04T01:17:19;1034.3;;;8.5;50.7
74437;BME280;62868;52.360;30.424;2023-06-04T01:21:34;1034.2;;;8.4;50.9
74437;BME280;62868;52.360;30.424;2023-06-04T01:26:56;1034.2;;;8.3;51.1
74437;BME280;62868;52.360;30.424;2023-06-04T01:31:46;1034.2;;;8.2;51.4
74437;BME280;62868;52.360;30.424;2023-06-04T01:37:18;1034.2;;;8.1;51.5
74437;BME280;62868;52.360;30.424;2023-06-04T01:41:34;1034.2;;;8.1;51.5
74437;BME280;62868;52.360;30.424;2023-06-04T01:47:18;1034.3;;;8.1;51.6
74437;BME280;62868;52.360;30.424;2023-06-04T01:52:04;1034.3;;;8;51.8
74437;BME280;62868;52.360;30.424;2023-06-04T01:57:20;1034.4;;;8.1;51.8
74437;BME280;62868;52.360;30.424;2023-06-04T02:01:34;1034.4;;;8.1;51.9
74437;BME280;62868;52.360;30.424;2023-06-04T02:07:20;1034.5;;;8.1;52
74437;BME280;62868;52.360;30.424;2023-06-04T02:12:04;1034.5;;;8.2;52
74437;BME280;62868;52.360;30.424;2023-06-04T02:17:20;1034.6;;;8.3;52
74437;BME280;62868;52.360;30.424;2023-06-04T02:21:38;1034.5;;;8.5;52
74437;BME280;62868;52.360;30.424;2023-06-04T02:27:20;1034.6;;;8.8;51.7
74437;BME280;62868;52.360;30.424;2023-06-04T02:32:04;1034.6;;;9.8;50.6
74437;BME280;62868;52.360;30.424;2023-06-04T02:37:20;1034.6;;;10.3;50.3
74437;BME280;62868;52.360;30.424;2023-06-04T02:41:38;1034.6;;;11.2;49.5
74437;BME280;62868;52.360;30.424;2023-06-04T02:47:20;1034.6;;;13.9;46.2
74437;BME280;62868;52.360;30.424;2023-06-04T02:51:40;1034.6;;;17.6;42.3
74437;BME280;62868;52.360;30.424;2023-06-04T02:57:20;1034.5;;;20.9;39.4
74437;BME280;62868;52.360;30.424;2023-06-04T03:01:46;1034.5;;;23.8;37.3
74437;BME280;62868;52.360;30.424;2023-06-04T03:07:20;1034.5;;;26.7;35
74437;BME280;62868;52.360;30.424;2023-06-04T03:12:02;1034.5;;;29;33.2
74437;BME280;62868;52.360;30.424;2023-06-04T03:17:20;1034.5;;;31.1;31.3
74437;BME280;62868;52.360;30.424;2023-06-04T03:21:34;1034.5;;;32.8;29.7
74437;BME280;62868;52.360;30.424;2023-06-04T03:27:20;1034.4;;;33.9;29
74437;BME280;62868;52.360;30.424;2023-06-04T03:32:02;1034.4;;;35.1;27.7
74437;BME280;62868;52.360;30.424;2023-06-04T03:37:20;1034.4;;;36.2;26.3
74437;BME280;62868;52.360;30.424;2023-06-04T03:41:46;1034.4;;;37.2;25.1
74437;BME280;62868;52.360;30.424;2023-06-04T03:47:20;1034.4;;;37.9;24.1
74437;BME280;62868;52.360;30.424;2023-06-04T03:52:04;1034.4;;;38.4;23.1
74437;BME280;62868;52.360;30.424;2023-06-04T03:57:20;1034.4;;;38.6;22.2
74437;BME280;62868;52.360;30.424;2023-06-04T04:01:50;1034.4;;;38.2;21.6
74437;BME280;62868;52.360;30.424;2023-06-04T04:07:20;1034.5;;;36.3;22.5
74437;BME280;62868;52.360;30.424;2023-06-04T04:12:04;1034.6;;;31.9;25.9
74437;BME280;62868;52.360;30.424;2023-06-04T04:17:20;1034.6;;;28.7;28.2
74437;BME280;62868;52.360;30.424;2023-06-04T04:21:34;1034.7;;;26.8;29.2
74437;BME280;62868;52.360;30.424;2023-06-04T04:27:18;1034.7;;;25.6;29.7
74437;BME280;62868;52.360;30.424;2023-06-04T04:31:36;1034.8;;;24.5;30.2
74437;BME280;62868;52.360;30.424;2023-06-04T04:37:20;1034.8;;;23.7;30.5
74437;BME280;62868;52.360;30.424;2023-06-04T04:42:04;1034.8;;;23.2;30.7
74437;BME280;62868;52.360;30.424;2023-06-04T04:47:20;1034.8;;;22.7;30.8
74437;BME280;62868;52.360;30.424;2023-06-04T04:52:20;1034.8;;;22.4;30.8
74437;BME280;62868;52.360;30.424;2023-06-04T04:57:20;1034.8;;;22.4;30.7
74437;BME280;62868;52.360;30.424;2023-06-04T05:01:46;1034.8;;;22.2;30.6
74437;BME280;62868;52.360;30.424;2023-06-04T05:07:20;1034.8;;;21.9;30.6
74437;BME280;62868;52.360;30.424;2023-06-04T05:11:52;1034.8;;;21.9;30.4
74437;BME280;62868;52.360;30.424;2023-06-04T05:17:20;1034.8;;;21.9;30.2
74437;BME280;62868;52.360;30.424;2023-06-04T05:21:46;1034.8;;;22.1;30.2
74437;BME280;62868;52.360;30.424;2023-06-04T05:27:18;1034.8;;;22.2;30.2
74437;BME280;62868;52.360;30.424;2023-06-04T05:32:02;1034.8;;;22.4;30
74437;BME280;62868;52.360;30.424;2023-06-04T05:37:20;1034.8;;;22.7;29.8
74437;BME280;62868;52.360;30.424;2023-06-04T05:41:40;1034.8;;;23;29.7
74437;BME280;62868;52.360;30.424;2023-06-04T05:47:20;1034.8;;;23.2;29.6
74437;BME280;62868;52.360;30.424;2023-06-04T05:52:04;1034.8;;;23.3;29.6
74437;BME280;62868;52.360;30.424;2023-06-04T05:57:20;1034.8;;;23.6;29.5
74437;BME280;62868;52.360;30.424;2023-06-04T06:01:46;1034.8;;;23.7;29.5
74437;BME280;62868;52.360;30.424;2023-06-04T06:07:20;1034.8;;;23.8;29.2
74437;BME280;62868;52.360;30.424;2023-06-04T06:12:02;1034.8;;;23.6;29.2
74437;BME280;62868;52.360;30.424;2023-06-04T06:17:20;1034.7;;;23.7;29.1
74437;BME280;62868;52.360;30.424;2023-06-04T06:21:34;1034.8;;;24;29
74437;BME280;62868;52.360;30.424;2023-06-04T06:27:20;1034.7;;;24.1;28.9
74437;BME280;62868;52.360;30.424;2023-06-04T06:32:02;1034.6;;;24.2;28.8
74437;BME280;62868;52.360;30.424;2023-06-04T06:37:20;1034.6;;;24.5;28.7
74437;BME280;62868;52.360;30.424;2023-06-04T06:41:46;1034.6;;;24.5;28.6
74437;BME280;62868;52.360;30.424;2023-06-04T06:47:18;1034.6;;;24.7;28.5
74437;BME280;62868;52.360;30.424;2023-06-04T06:52:04;1034.7;;;25.3;28.3
74437;BME280;62868;52.360;30.424;2023-06-04T06:57:20;1034.6;;;25.6;28.2
74437;BME280;62868;52.360;30.424;2023-06-04T07:01:58;1034.6;;;25.8;28
74437;BME280;62868;52.360;30.424;2023-06-04T07:07:20;1034.6;;;25.8;27.8
74437;BME280;62868;52.360;30.424;2023-06-04T07:12:00;1034.6;;;25.9;27.6
74437;BME280;62868;52.360;30.424;2023-06-04T07:17:20;1034.6;;;25.7;27.8
74437;BME280;62868;52.360;30.424;2023-06-04T07:21:34;1034.6;;;25;28.2
74437;BME280;62868;52.360;30.424;2023-06-04T07:27:20;1034.6;;;25.5;27.8
74437;BME280;62868;52.360;30.424;2023-06-04T07:32:02;1034.6;;;26.2;27.4
74437;BME280;62868;52.360;30.424;2023-06-04T07:37:20;1034.6;;;26.6;27.2
74437;BME280;62868;52.360;30.424;2023-06-04T07:41:40;1034.5;;;27.4;26.7
74437;BME280;62868;52.360;30.424;2023-06-04T07:47:20;1034.5;;;27.1;26.6
74437;BME280;62868;52.360;30.424;2023-06-04T07:52:20;1034.5;;;26.7;26.8
74437;BME280;62868;52.360;30.424;2023-06-04T07:57:20;1034.5;;;25.9;27.2
74437;BME280;62868;52.360;30.424;2023-06-04T08:01:46;1034.5;;;26.6;26.7
74437;BME280;62868;52.360;30.424;2023-06-04T08:07:20;1034.5;;;27.3;26.2
74437;BME280;62868;52.360;30.424;2023-06-04T08:12:02;1034.5;;;27.1;25.9
74437;BME280;62868;52.360;30.424;2023-06-04T08:17:18;1034.5;;;25.7;26.5
74437;BME280;62868;52.360;30.424;2023-06-04T08:21:44;1034.5;;;25.4;26.8
74437;BME280;62868;52.360;30.424;2023-06-04T08:27:20;1034.5;;;25.1;27
74437;BME280;62868;52.360;30.424;2023-06-04T08:32:02;1034.5;;;25.2;27
74437;BME280;62868;52.360;30.424;2023-06-04T08:37:20;1034.4;;;25.8;26.3
74437;BME280;62868;52.360;30.424;2023-06-04T08:41:48;1034.4;;;26.1;26.1
74437;BME280;62868;52.360;30.424;2023-06-04T08:47:18;1034.3;;;25.5;26
74437;BME280;62868;52.360;30.424;2023-06-04T08:51:48;1034.4;;;25.9;25.5
74437;BME280;62868;52.360;30.424;2023-06-04T08:57:20;1034.4;;;25.6;25.5
74437;BME280;62868;52.360;30.424;2023-06-04T09:01:34;1034.4;;;25;25.8
74437;BME280;62868;52.360;30.424;2023-06-04T09:07:04;1034.5;;;25.2;25.8
74437;BME280;62868;52.360;30.424;2023-06-04T09:12:02;1034.5;;;25.3;25.8
74437;BME280;62868;52.360;30.424;2023-06-04T09:17:22;1034.5;;;25.2;25.9
74437;BME280;62868;52.360;30.424;2023-06-04T09:21:46;1034.4;;;25.2;26.1
74437;BME280;62868;52.360;30.424;2023-06-04T09:27:18;1034.4;;;25.1;26.3
74437;BME280;62868;52.360;30.424;2023-06-04T09:32:04;1034.4;;;25.3;26.4
74437;BME280;62868;52.360;30.424;2023-06-04T09:37:14;1034.4;;;25.6;26
74437;BME280;62868;52.360;30.424;2023-06-04T09:41:34;1034.4;;;26;25.5
74437;BME280;62868;52.360;30.424;2023-06-04T09:47:20;1034.4;;;26;25.7
74437;BME280;62868;52.360;30.424;2023-06-04T09:52:02;1034.4;;;25.8;25.7
74437;BME280;62868;52.360;30.424;2023-06-04T09:56:48;1034.4;;;25.6;25.8
74437;BME280;62868;52.360;30.424;2023-06-04T10:01:34;1034.4;;;25.9;25.4
74437;BME280;62868;52.360;30.424;2023-06-04T10:07:20;1034.4;;;26.6;24.8
74437;BME280;62868;52.360;30.424;2023-06-04T10:11:52;1034.4;;;26.4;25
74437;BME280;62868;52.360;30.424;2023-06-04T10:17:14;1034.4;;;26.1;25.2
74437;BME280;62868;52.360;30.424;2023-06-04T10:21:44;1034.3;;;25.9;25.3
74437;BME280;62868;52.360;30.424;2023-06-04T10:27:20;1034.3;;;26;25.4
74437;BME280;62868;52.360;30.424;2023-06-04T10:32:04;1034.3;;;26.5;24.9
74437;BME280;62868;52.360;30.424;2023-06-04T10:37:18;1034.2;;;26.9;24.4
74437;BME280;62868;52.360;30.424;2023-06-04T10:41:34;1034.2;;;27;24.5
74437;BME280;62868;52.360;30.424;2023-06-04T10:47:18;1034.2;;;27;24.5
74437;BME280;62868;52.360;30.424;2023-06-04T10:52:09;1034.2;;;26.8;24.6
74437;BME280;62868;52.360;30.424;2023-06-04T10:57:14;1034.2;;;26.8;24.6
74437;BME280;62868;52.360;30.424;2023-06-04T11:01:34;1034.2;;;26.6;24.6
74437;BME280;62868;52.360;30.424;2023-06-04T11:07:22;1034.1;;;26.8;24.3
74437;BME280;62868;52.360;30.424;2023-06-04T11:12:22;1034;;;26.9;24.1
74437;BME280;62868;52.360;30.424;2023-06-04T11:17:12;1034;;;26.6;24.2
74437;BME280;62868;52.360;30.424;2023-06-04T11:21:58;1034;;;26.7;24.4
74437;BME280;62868;52.360;30.424;2023-06-04T11:27:22;1033.9;;;26.7;24.3
74437;BME280;62868;52.360;30.424;2023-06-04T11:32:06;1033.7;;;27.4;23.8
74437;BME280;62868;52.360;30.424;2023-06-04T11:37:14;1033.8;;;28.3;23.3
74437;BME280;62868;52.360;30.424;2023-06-04T11:41:34;1033.8;;;28.8;23
74437;BME280;62868;52.360;30.424;2023-06-04T11:47:22;1033.7;;;28.6;22.9
74437;BME280;62868;52.360;30.424;2023-06-04T11:52:06;1033.7;;;29.1;22.6
74437;BME280;62868;52.360;30.424;2023-06-04T11:57:22;1033.7;;;29.5;22.4
74437;BME280;62868;52.360;30.424;2023-06-04T12:01:46;1033.6;;;29.8;22.4
74437;BME280;62868;52.360;30.424;2023-06-04T12:07:19;1033.6;;;29.6;22.3
74437;BME280;62868;52.360;30.424;2023-06-04T12:12:04;1033.6;;;29.3;22.3
74437;BME280;62868;52.360;30.424;2023-06-04T12:17:14;1033.6;;;29.1;22.3
74437;BME280;62868;52.360;30.424;2023-06-04T12:21:44;1033.6;;;28.8;22.4
74437;BME280;62868;52.360;30.424;2023-06-04T12:27:20;1033.6;;;28.8;22.4
74437;BME280;62868;52.360;30.424;2023-06-04T12:32:04;1033.6;;;28.4;22.4
74437;BME280;62868;52.360;30.424;2023-06-04T12:37:12;1033.5;;;28.2;22.6
74437;BME280;62868;52.360;30.424;2023-06-04T12:41:44;1033.4;;;27.7;22.9
74437;BME280;62868;52.360;30.424;2023-06-04T12:47:18;1033.4;;;27.2;23.2
74437;BME280;62868;52.360;30.424;2023-06-04T12:51:56;1033.4;;;27.1;22.9
74437;BME280;62868;52.360;30.424;2023-06-04T12:57:12;1033.4;;;26.9;23.2
74437;BME280;62868;52.360;30.424;2023-06-04T13:01:34;1033.3;;;26.1;23.4
74437;BME280;62868;52.360;30.424;2023-06-04T13:07:18;1033.3;;;25.9;23.5
74437;BME280;62868;52.360;30.424;2023-06-04T13:12:02;1033.3;;;25.4;23.6
74437;BME280;62868;52.360;30.424;2023-06-04T13:17:14;1033.2;;;25;23.9
74437;BME280;62868;52.360;30.424;2023-06-04T13:21:44;1033.2;;;25.2;23.9
74437;BME280;62868;52.360;30.424;2023-06-04T13:27:20;1033.2;;;25.3;24
74437;BME280;62868;52.360;30.424;2023-06-04T13:32:02;1033.1;;;25.5;23.9
74437;BME280;62868;52.360;30.424;2023-06-04T13:37:14;1033.1;;;25.1;24.1
74437;BME280;62868;52.360;30.424;2023-06-04T13:41:34;1033.1;;;25.1;24
74437;BME280;62868;52.360;30.424;2023-06-04T13:47:20;1033;;;24.7;24.1
74437;BME280;62868;52.360;30.424;2023-06-04T13:52:04;1033;;;24.8;24.2
74437;BME280;62868;52.360;30.424;2023-06-04T13:57:14;1033;;;24.9;24.2
74437;BME280;62868;52.360;30.424;2023-06-04T14:01:46;1033;;;25;24.3
74437;BME280;62868;52.360;30.424;2023-06-04T14:07:04;1033;;;24.5;24.7
74437;BME280;62868;52.360;30.424;2023-06-04T14:12:12;1032.9;;;24;24.9
74437;BME280;62868;52.360;30.424;2023-06-04T14:17:20;1033;;;24;25
74437;BME280;62868;52.360;30.424;2023-06-04T14:21:34;1032.9;;;24.4;24.8
74437;BME280;62868;52.360;30.424;2023-06-04T14:27:06;1032.9;;;24.6;24.7
74437;BME280;62868;52.360;30.424;2023-06-04T14:31:36;1032.8;;;24.5;24.7
74437;BME280;62868;52.360;30.424;2023-06-04T14:37:20;1032.8;;;24.5;24.8
74437;BME280;62868;52.360;30.424;2023-06-04T14:41:58;1032.8;;;24.6;24.8
74437;BME280;62868;52.360;30.424;2023-06-04T14:47:04;1032.8;;;24.5;24.7
74437;BME280;62868;52.360;30.424;2023-06-04T14:51:48;1032.8;;;24.2;24.9
74437;BME280;62868;52.360;30.424;2023-06-04T14:56:56;1032.8;;;24.3;24.9
74437;BME280;62868;52.360;30.424;2023-06-04T15:01:46;1032.7;;;24.4;24.9
74437;BME280;62868;52.360;30.424;2023-06-04T15:07:04;1032.7;;;24.5;24.9
74437;BME280;62868;52.360;30.424;2023-06-04T15:12:14;1032.7;;;24.3;24.8
74437;BME280;62868;52.360;30.424;2023-06-04T15:17:20;1032.6;;;24.2;24.9
74437;BME280;62868;52.360;30.424;2023-06-04T15:21:34;1032.7;;;24;25
74437;BME280;62868;52.360;30.424;2023-06-04T15:27:02;1032.6;;;23.8;25.2
74437;BME280;62868;52.360;30.424;2023-06-04T15:32:14;1032.6;;;23.8;25.3
74437;BME280;62868;52.360;30.424;2023-06-04T15:37:22;1032.6;;;23.6;25.5
74437;BME280;62868;52.360;30.424;2023-06-04T15:42:14;1032.6;;;23.3;25.6
74437;BME280;62868;52.360;30.424;2023-06-04T15:47:06;1032.5;;;23.1;25.7
74437;BME280;62868;52.360;30.424;2023-06-04T15:52:12;1032.5;;;23.1;26
74437;BME280;62868;52.360;30.424;2023-06-04T15:57:22;1032.5;;;22.9;26.1
74437;BME280;62868;52.360;30.424;2023-06-04T16:01:46;1032.5;;;22.8;26.3
74437;BME280;62868;52.360;30.424;2023-06-04T16:07:06;1032.4;;;22.7;26.3
74437;BME280;62868;52.360;30.424;2023-06-04T16:12:14;1032.3;;;22.5;26.4
74437;BME280;62868;52.360;30.424;2023-06-04T16:17:20;1032.3;;;22.3;26.5
74437;BME280;62868;52.360;30.424;2023-06-04T16:21:46;1032.3;;;22.2;26.7
74437;BME280;62868;52.360;30.424;2023-06-04T16:27:06;1032.4;;;22;26.8
74437;BME280;62868;52.360;30.424;2023-06-04T16:32:12;1032.4;;;21.9;27.2
74437;BME280;62868;52.360;30.424;2023-06-04T16:37:20;1032.4;;;21.8;27.5
74437;BME280;62868;52.360;30.424;2023-06-04T16:41:34;1032.4;;;21.6;27.6
74437;BME280;62868;52.360;30.424;2023-06-04T16:47:02;1032.5;;;21.4;27.7
74437;BME280;62868;52.360;30.424;2023-06-04T16:52:14;1032.5;;;21.3;28.1
74437;BME280;62868;52.360;30.424;2023-06-04T16:57:20;1032.5;;;21.1;28.3
74437;BME280;62868;52.360;30.424;2023-06-04T17:01:44;1032.5;;;20.9;28.3
74437;BME280;62868;52.360;30.424;2023-06-04T17:07:04;1032.4;;;20.8;28.3
74437;BME280;62868;52.360;30.424;2023-06-04T17:12:12;1032.4;;;20.7;28.5
74437;BME280;62868;52.360;30.424;2023-06-04T17:17:20;1032.5;;;20.6;29
74437;BME280;62868;52.360;30.424;2023-06-04T17:21:34;1032.5;;;20.4;29.7
74437;BME280;62868;52.360;30.424;2023-06-04T17:27:02;1032.5;;;20.2;30
74437;BME280;62868;52.360;30.424;2023-06-04T17:32:14;1032.5;;;20.1;30.5
74437;BME280;62868;52.360;30.424;2023-06-04T17:37:18;1032.5;;;19.9;31.1
74437;BME280;62868;52.360;30.424;2023-06-04T17:41:46;1032.4;;;19.7;31.7
74437;BME280;62868;52.360;30.424;2023-06-04T17:47:06;1032.4;;;19.5;32.1
74437;BME280;62868;52.360;30.424;2023-06-04T17:51:36;1032.4;;;19.3;32.3
74437;BME280;62868;52.360;30.424;2023-06-04T17:57:22;1032.4;;;19.1;32.9
74437;BME280;62868;52.360;30.424;2023-06-04T18:02:12;1032.4;;;18.8;33.3
74437;BME280;62868;52.360;30.424;2023-06-04T18:07:06;1032.5;;;18.5;33.5
74437;BME280;62868;52.360;30.424;2023-06-04T18:12:14;1032.5;;;18.3;33.6
74437;BME280;62868;52.360;30.424;2023-06-04T18:17:22;1032.6;;;18;34.2
74437;BME280;62868;52.360;30.424;2023-06-04T18:21:34;1032.6;;;17.7;35
74437;BME280;62868;52.360;30.424;2023-06-04T18:27:06;1032.7;;;17.4;35.6
74437;BME280;62868;52.360;30.424;2023-06-04T18:31:34;1032.7;;;17;36
74437;BME280;62868;52.360;30.424;2023-06-04T18:36:54;1032.7;;;16.7;36.3
74437;BME280;62868;52.360;30.424;2023-06-04T18:42:17;1032.8;;;16.5;36.5
74437;BME280;62868;52.360;30.424;2023-06-04T18:47:20;1032.8;;;16.3;36.6
74437;BME280;62868;52.360;30.424;2023-06-04T18:52:00;1032.8;;;16.2;36.8
74437;BME280;62868;52.360;30.424;2023-06-04T18:56:48;1032.8;;;16;37.1
74437;BME280;62868;52.360;30.424;2023-06-04T19:02:06;1032.8;;;15.8;37.4
74437;BME280;62868;52.360;30.424;2023-06-04T19:06:46;1032.8;;;15.6;37.8
74437;BME280;62868;52.360;30.424;2023-06-04T19:11:48;1032.8;;;15.5;38.2
74437;BME280;62868;52.360;30.424;2023-06-04T19:17:00;1032.8;;;15.3;38.4
74437;BME280;62868;52.360;30.424;2023-06-04T19:22:06;1032.8;;;15.2;38.7
74437;BME280;62868;52.360;30.424;2023-06-04T19:26:44;1032.9;;;15;39
74437;BME280;62868;52.360;30.424;2023-06-04T19:32:00;1032.9;;;15;39.1
74437;BME280;62868;52.360;30.424;2023-06-04T19:36:46;1032.9;;;14.9;39.5
74437;BME280;62868;52.360;30.424;2023-06-04T19:41:54;1032.9;;;14.8;39.8
74437;BME280;62868;52.360;30.424;2023-06-04T19:46:56;1032.9;;;14.8;40
74437;BME280;62868;52.360;30.424;2023-06-04T19:52:00;1032.9;;;14.7;40.3
74437;BME280;62868;52.360;30.424;2023-06-04T19:56:34;1033;;;14.7;40.4
74437;BME280;62868;52.360;30.424;2023-06-04T20:02:06;1032.9;;;14.7;40.6
74437;BME280;62868;52.360;30.424;2023-06-04T20:07:00;1032.9;;;14.7;40.8
74437;BME280;62868;52.360;30.424;2023-06-04T20:12:00;1032.9;;;14.7;41.2
74437;BME280;62868;52.360;30.424;2023-06-04T20:17:00;1032.9;;;14.7;41.3
74437;BME280;62868;52.360;30.424;2023-06-04T20:22:06;1032.9;;;14.7;41.5
74437;BME280;62868;52.360;30.424;2023-06-04T20:26:58;1032.9;;;14.7;41.8
74437;BME280;62868;52.360;30.424;2023-06-04T20:32:06;1032.9;;;14.8;41.6
74437;BME280;62868;52.360;30.424;2023-06-04T20:36:46;1033;;;15;41
74437;BME280;62868;52.360;30.424;2023-06-04T20:41:36;1033;;;15.2;40.5
74437;BME280;62868;52.360;30.424;2023-06-04T20:46:46;1032.9;;;15.3;40.2
74437;BME280;62868;52.360;30.424;2023-06-04T20:52:00;1032.9;;;15.4;40
74437;BME280;62868;52.360;30.424;2023-06-04T20:56:34;1032.9;;;15.6;39.8
74437;BME280;62868;52.360;30.424;2023-06-04T21:02:02;1032.8;;;15.7;39.5
74437;BME280;62868;52.360;30.424;2023-06-04T21:06:46;1032.9;;;15.7;39.5
74437;BME280;62868;52.360;30.424;2023-06-04T21:12:06;1032.9;;;15.7;39.7
74437;BME280;62868;52.360;30.424;2023-06-04T21:16:48;1032.9;;;15.7;39.9
74437;BME280;62868;52.360;30.424;2023-06-04T21:21:50;1032.9;;;15.6;40.4
74437;BME280;62868;52.360;30.424;2023-06-04T21:26:34;1032.9;;;15.6;40.7
74437;BME280;62868;52.360;30.424;2023-06-04T21:32:00;1032.8;;;15.5;40.9
74437;BME280;62868;52.360;30.424;2023-06-04T21:36:34;1032.8;;;15.4;41.3
74437;BME280;62868;52.360;30.424;2023-06-04T21:42:08;1032.9;;;15.4;41.5
74437;BME280;62868;52.360;30.424;2023-06-04T21:46:34;1032.9;;;15.3;41.7
74437;BME280;62868;52.360;30.424;2023-06-04T21:51:34;1032.9;;;15.3;41.7
74437;BME280;62868;52.360;30.424;2023-06-04T21:56:46;1033;;;15.1;41.7
74437;BME280;62868;52.360;30.424;2023-06-04T22:02:06;1033;;;15;41.9
74437;BME280;62868;52.360;30.424;2023-06-04T22:06:56;1033;;;14.9;42.2
74437;BME280;62868;52.360;30.424;2023-06-04T22:11:58;1033;;;14.8;42.5
74437;BME280;62868;52.360;30.424;2023-06-04T22:16:34;1033;;;14.6;42.8
74437;BME280;62868;52.360;30.424;2023-06-04T22:22:06;1033;;;14.3;43.2
74437;BME280;62868;52.360;30.424;2023-06-04T22:26:34;1033;;;14.1;43.5
74437;BME280;62868;52.360;30.424;2023-06-04T22:31:58;1033;;;13.9;43.9
74437;BME280;62868;52.360;30.424;2023-06-04T22:36:34;1033;;;13.6;44.3
74437;BME280;62868;52.360;30.424;2023-06-04T22:42:04;1033.1;;;13.4;44.7
74437;BME280;62868;52.360;30.424;2023-06-04T22:46:44;1033.2;;;13.2;45
74437;BME280;62868;52.360;30.424;2023-06-04T22:51:58;1033.2;;;13.1;45.3
74437;BME280;62868;52.360;30.424;2023-06-04T22:56:34;1033.2;;;12.8;45.6
74437;BME280;62868;52.360;30.424;2023-06-04T23:01:34;1033.3;;;12.7;45.9
74437;BME280;62868;52.360;30.424;2023-06-04T23:06:56;1033.3;;;12.6;46.1
74437;BME280;62868;52.360;30.424;2023-06-04T23:11:44;1033.3;;;12.5;46.3
74437;BME280;62868;52.360;30.424;2023-06-04T23:16:58;1033.3;;;12.3;46.6
74437;BME280;62868;52.360;30.424;2023-06-04T23:21:42;1033.3;;;12.2;46.9
74437;BME280;62868;52.360;30.424;2023-06-04T23:26:42;1033.3;;;12.1;47.1
74437;BME280;62868;52.360;30.424;2023-06-04T23:31:34;1033.2;;;12;47.4
74437;BME280;62868;52.360;30.424;2023-06-04T23:37:10;1033.2;;;11.8;47.7
74437;BME280;62868;52.360;30.424;2023-06-04T23:41:46;1033.2;;;11.8;47.8
74437;BME280;62868;52.360;30.424;2023-06-04T23:46:42;1033.2;;;11.7;48
74437;BME280;62868;52.360;30.424;2023-06-04T23:51:34;1033.3;;;11.7;48
74437;BME280;62868;52.360;30.424;2023-06-04T23:56:46;1033.2;;;11.6;48.4
